Time;durP1;ratioP1;P1;durP2;ratioP2;P2;SDS_P1;SDS_P2;PMS_P1;PMS_P2;Temp;Humidity;BMP_temperature;BMP_pressure;BME280_temperature;BME280_humidity;BME280_pressure;Samples;Min_cycle;Max_cycle;Signal;HPM_P1;HPM_P2
2021/08/14 00:00:18;;;;;;;12.73;4.50;;;;;;;16.76;81.79;102088.56;4977500;28;20190;-74
2021/08/14 00:02:43;;;;;;;11.50;4.00;;;;;;;16.47;82.25;102052.72;4975872;28;20681;-74
2021/08/14 00:05:09;;;;;;;13.87;4.10;;;;;;;16.69;82.07;102073.13;4978705;28;20470;-74
2021/08/14 00:07:34;;;;;;;12.43;3.90;;;;;;;16.39;81.31;101991.47;4975384;28;20679;-74
2021/08/14 00:09:59;;;;;;;17.20;4.37;;;;;;;16.72;82.10;102088.97;4976315;28;20635;-74
2021/08/14 00:12:25;;;;;;;14.10;4.60;;;;;;;16.88;81.40;102095.84;4975959;28;20400;-74
2021/08/14 00:14:50;;;;;;;17.43;4.70;;;;;;;16.49;81.33;102035.22;4983096;28;20202;-74
2021/08/14 00:17:16;;;;;;;18.27;4.43;;;;;;;16.80;81.20;102087.09;4974493;28;20214;-74
2021/08/14 00:19:41;;;;;;;12.20;4.10;;;;;;;16.68;81.62;102066.03;4986234;28;20213;-74
2021/08/14 00:22:07;;;;;;;14.53;4.40;;;;;;;16.41;81.78;102038.13;4980006;28;20190;-75
2021/08/14 00:24:33;;;;;;;13.40;4.90;;;;;;;16.59;81.39;102045.63;4978815;28;20233;-74
2021/08/14 00:26:58;;;;;;;12.33;4.10;;;;;;;16.85;81.64;102090.03;4970044;28;20322;-74
2021/08/14 00:29:23;;;;;;;12.97;5.20;;;;;;;16.57;81.84;102055.00;4974150;28;20189;-74
2021/08/14 00:31:49;;;;;;;21.50;6.50;;;;;;;16.85;81.53;102081.91;4977150;28;20289;-74
2021/08/14 00:34:14;;;;;;;16.03;6.40;;;;;;;16.79;81.74;102074.63;4976334;28;20621;-74
2021/08/14 00:36:40;;;;;;;15.80;6.80;;;;;;;16.69;81.56;102062.31;4976764;28;20206;-74
2021/08/14 00:39:05;;;;;;;20.60;7.40;;;;;;;16.71;82.17;102075.63;4976495;28;21951;-74
2021/08/14 00:41:32;;;;;;;17.53;7.03;;;;;;;16.86;81.73;102083.56;4978589;28;20186;-74
2021/08/14 00:44:02;;;;;;;16.60;6.40;;;;;;;16.84;82.24;102066.69;4977321;28;20244;-74
2021/08/14 00:46:29;;;;;;;14.50;6.87;;;;;;;16.78;82.01;102070.22;4977782;28;20486;-74
2021/08/14 00:48:59;;;;;;;12.70;6.80;;;;;;;16.70;82.29;102063.13;4974977;28;20796;-74
2021/08/14 00:51:25;;;;;;;13.80;7.00;;;;;;;16.52;83.46;102066.47;4979228;28;20476;-74
2021/08/14 00:53:50;;;;;;;21.50;6.77;;;;;;;16.61;83.12;102067.09;4982278;28;21141;-75
2021/08/14 00:56:20;;;;;;;14.17;7.10;;;;;;;16.66;82.73;102056.44;4977237;28;20213;-74
2021/08/14 00:58:46;;;;;;;16.27;6.90;;;;;;;16.26;83.02;101986.06;4971625;28;20190;-74
2021/08/14 01:01:12;;;;;;;18.03;6.77;;;;;;;16.49;83.03;102034.41;4976684;28;20476;-75
2021/08/14 01:03:37;;;;;;;13.53;7.33;;;;;;;16.45;83.54;102049.38;4979821;28;20473;-75
2021/08/14 01:06:02;;;;;;;19.67;8.40;;;;;;;16.52;83.00;102050.22;4976604;28;20245;-75
2021/08/14 01:08:28;;;;;;;20.40;8.87;;;;;;;16.50;83.43;102053.13;4976005;28;20194;-74
2021/08/14 01:10:53;;;;;;;14.47;7.57;;;;;;;16.35;83.69;102048.97;4976990;28;20568;-74
2021/08/14 01:13:20;;;;;;;15.73;6.30;;;;;;;16.48;83.36;102057.09;4976065;28;20218;-74
2021/08/14 01:15:50;;;;;;;12.57;6.93;;;;;;;16.39;83.09;102018.53;4977952;28;20195;-74
2021/08/14 01:18:16;;;;;;;11.93;5.23;;;;;;;16.31;83.25;102013.34;4978963;28;20532;-75
2021/08/14 01:20:43;;;;;;;12.00;5.90;;;;;;;16.48;83.27;102033.53;4975839;28;20804;-74
2021/08/14 01:23:10;;;;;;;19.13;7.03;;;;;;;16.50;83.25;102034.16;4975299;28;20495;-74
2021/08/14 01:25:35;;;;;;;16.60;7.03;;;;;;;16.17;83.44;101981.88;4977994;28;20623;-74
2021/08/14 01:28:01;;;;;;;13.47;6.20;;;;;;;16.44;83.69;102032.31;4969415;28;21079;-75
2021/08/14 01:30:26;;;;;;;16.03;6.27;;;;;;;16.36;83.87;102035.22;4978136;28;20725;-74
2021/08/14 01:32:52;;;;;;;14.43;5.87;;;;;;;16.32;84.06;102031.25;4981505;28;20193;-75
2021/08/14 01:35:18;;;;;;;17.67;6.27;;;;;;;15.91;83.81;101959.22;4973438;28;20202;-74
2021/08/14 01:37:43;;;;;;;16.93;5.70;;;;;;;16.17;84.32;102028.75;4978569;28;20217;-75
2021/08/14 01:40:09;;;;;;;17.40;5.47;;;;;;;16.34;83.63;102039.16;4979764;28;20194;-74
2021/08/14 01:42:34;;;;;;;16.47;5.17;;;;;;;15.88;84.28;101983.97;4982129;28;20563;-74
2021/08/14 01:45:00;;;;;;;13.67;5.60;;;;;;;16.15;83.84;102005.66;4976355;28;20185;-74
2021/08/14 01:47:25;;;;;;;14.27;5.00;;;;;;;15.83;83.35;101940.47;4973165;28;20724;-75
2021/08/14 01:49:50;;;;;;;13.77;5.60;;;;;;;15.85;84.03;101953.78;4971563;28;20233;-74
2021/08/14 01:52:17;;;;;;;12.27;4.77;;;;;;;16.19;84.06;102012.28;4977926;28;20198;-74
2021/08/14 01:54:43;;;;;;;13.37;4.67;;;;;;;16.08;84.41;102011.03;4983078;28;20181;-74
2021/08/14 01:57:09;;;;;;;19.90;6.13;;;;;;;16.19;83.90;102015.84;4972756;28;20579;-75
2021/08/14 01:59:36;;;;;;;12.73;4.93;;;;;;;15.88;84.47;102002.06;4976289;28;20456;-74
2021/08/14 02:02:02;;;;;;;10.33;4.63;;;;;;;15.84;84.41;101979.16;4973369;28;20441;-75
2021/08/14 02:04:29;;;;;;;15.93;4.67;;;;;;;16.18;84.00;102022.31;4968649;28;20446;-74
2021/08/14 02:06:55;;;;;;;11.00;4.07;;;;;;;16.22;83.92;102023.53;4971162;28;20484;-74
2021/08/14 02:09:20;;;;;;;8.70;4.43;;;;;;;15.64;84.29;101928.53;4975873;28;20445;-74
2021/08/14 02:11:45;;;;;;;14.37;4.50;;;;;;;15.82;83.78;101930.66;4975617;28;20440;-74
2021/08/14 02:14:12;;;;;;;12.40;5.13;;;;;;;16.07;83.87;101982.31;4978682;28;20198;-74
2021/08/14 02:16:37;;;;;;;19.30;6.07;;;;;;;16.23;83.89;101995.44;4974771;28;20709;-75
2021/08/14 02:19:03;;;;;;;13.20;4.80;;;;;;;16.26;83.13;101986.06;4976249;28;22073;-74
2021/08/14 02:21:31;;;;;;;16.10;5.10;;;;;;;16.25;83.78;101987.09;4973154;28;20221;-74
2021/08/14 02:23:58;;;;;;;14.83;4.40;;;;;;;16.14;83.47;101964.22;4974517;28;20202;-75
2021/08/14 02:26:24;;;;;;;12.47;4.67;;;;;;;16.38;83.39;101992.53;4981387;28;20490;-74
2021/08/14 02:28:49;;;;;;;15.37;4.40;;;;;;;15.88;83.51;101927.16;4978814;28;20460;-74
2021/08/14 02:31:15;;;;;;;12.97;4.70;;;;;;;16.35;83.25;102000.25;4974052;28;20450;-74
2021/08/14 02:33:41;;;;;;;14.47;5.43;;;;;;;16.25;83.48;101970.84;4982690;28;20190;-74
2021/08/14 02:36:07;;;;;;;11.77;4.80;;;;;;;16.50;82.70;101998.13;4978181;28;20224;-74
2021/08/14 02:38:36;;;;;;;11.37;4.67;;;;;;;16.44;83.24;101993.56;4977516;28;20291;-74
2021/08/14 02:41:03;;;;;;;11.57;4.60;;;;;;;16.41;83.45;101988.56;4977523;28;20488;-74
2021/08/14 02:43:29;;;;;;;13.43;5.23;;;;;;;16.30;83.89;101995.44;4981869;28;20445;-74
2021/08/14 02:45:54;;;;;;;13.40;5.47;;;;;;;16.41;83.30;101992.09;4975292;28;20843;-74
2021/08/14 02:48:20;;;;;;;13.83;4.80;;;;;;;16.41;83.52;101988.56;4979550;28;20217;-74
2021/08/14 02:50:46;;;;;;;16.77;4.20;;;;;;;16.41;83.65;101978.56;4974588;28;20182;-75
2021/08/14 02:53:12;;;;;;;12.33;5.60;;;;;;;16.39;83.58;101979.81;4982268;28;20664;-75
2021/08/14 02:55:41;;;;;;;17.73;6.00;;;;;;;16.10;83.87;101954.00;4978056;28;20531;-75
2021/08/14 02:58:07;;;;;;;17.40;5.30;;;;;;;16.14;84.15;101955.25;4980639;28;20484;-75
2021/08/14 03:00:32;;;;;;;21.23;5.37;;;;;;;16.33;84.06;101978.78;4977827;28;20433;-75
2021/08/14 03:02:58;;;;;;;18.00;5.00;;;;;;;16.18;83.72;101941.09;4980799;28;20229;-74
2021/08/14 03:05:26;;;;;;;14.37;5.07;;;;;;;16.07;84.29;101941.72;4978337;28;20558;-75
2021/08/14 03:07:51;;;;;;;14.23;5.50;;;;;;;15.72;83.62;101866.16;4977779;28;20296;-75
2021/08/14 03:10:16;;;;;;;12.60;4.30;;;;;;;16.02;83.99;101923.38;4978394;28;21083;-75
2021/08/14 03:12:42;;;;;;;11.93;4.73;;;;;;;16.05;83.98;101922.13;4979735;28;20190;-75
2021/08/14 03:15:11;;;;;;;11.67;4.63;;;;;;;16.52;82.93;101962.69;4982437;28;20331;-74
2021/08/14 03:17:36;;;;;;;11.07;4.23;;;;;;;16.10;82.58;101879.06;4980533;28;20624;-74
2021/08/14 03:20:03;;;;;;;12.07;5.53;;;;;;;16.36;83.67;101961.28;4979415;28;20444;-75
2021/08/14 03:22:29;;;;;;;11.03;4.60;;;;;;;15.95;83.58;101895.50;4984212;28;20308;-75
2021/08/14 03:24:54;;;;;;;20.90;6.47;;;;;;;16.42;83.29;101952.31;4982389;28;20451;-75
2021/08/14 03:27:20;;;;;;;12.83;5.60;;;;;;;16.51;82.67;101956.47;4978152;28;20213;-74
2021/08/14 03:29:45;;;;;;;19.50;6.00;;;;;;;16.21;83.71;101939.84;4977901;28;20190;-75
2021/08/14 03:32:10;;;;;;;15.47;6.63;;;;;;;16.34;83.54;101960.66;4977343;28;20198;-74
2021/08/14 03:34:36;;;;;;;14.30;6.93;;;;;;;16.27;83.69;101950.66;4977055;28;20197;-75
2021/08/14 03:37:01;;;;;;;17.07;6.27;;;;;;;16.11;83.64;101917.75;4975807;28;20229;-75
2021/08/14 03:39:27;;;;;;;11.83;5.73;;;;;;;16.39;83.19;101940.03;4980313;28;20291;-75
2021/08/14 03:41:52;;;;;;;15.03;5.73;;;;;;;16.28;83.94;101946.06;4977608;28;20305;-75
2021/08/14 03:44:17;;;;;;;13.20;6.40;;;;;;;16.21;84.11;101947.97;4973348;28;20190;-75
2021/08/14 03:46:43;;;;;;;19.30;7.20;;;;;;;16.19;84.05;101944.63;4974337;28;20265;-74
2021/08/14 03:49:08;;;;;;;17.83;7.40;;;;;;;16.28;83.35;101927.13;4977490;28;20182;-74
2021/08/14 03:51:33;;;;;;;14.87;6.70;;;;;;;16.31;83.65;101955.66;4979057;28;20204;-75
2021/08/14 03:53:59;;;;;;;13.37;5.90;;;;;;;16.30;83.80;101954.00;4979743;28;20557;-75
2021/08/14 03:56:24;;;;;;;17.63;5.90;;;;;;;16.42;83.95;101957.72;4978988;28;20211;-74
2021/08/14 03:58:49;;;;;;;13.47;5.07;;;;;;;16.01;83.90;101899.25;4974163;28;20231;-74
2021/08/14 04:01:15;;;;;;;15.27;5.90;;;;;;;16.24;84.41;101948.38;4978463;28;20181;-75
2021/08/14 04:03:40;;;;;;;21.87;8.00;;;;;;;16.25;84.30;101954.63;4973171;28;20217;-75
2021/08/14 04:06:05;;;;;;;14.20;6.00;;;;;;;16.07;84.80;101941.72;4975909;28;20238;-74
2021/08/14 04:08:31;;;;;;;12.80;5.00;;;;;;;16.34;84.39;101960.66;4974474;28;20194;-74
2021/08/14 04:10:56;;;;;;;14.60;5.93;;;;;;;16.39;84.17;101956.28;4976485;28;20263;-74
2021/08/14 04:13:21;;;;;;;16.30;5.73;;;;;;;15.95;84.84;101909.03;4979229;28;20639;-74
2021/08/14 04:15:47;;;;;;;16.90;6.90;;;;;;;16.25;84.80;101957.31;4975633;28;20190;-75
2021/08/14 04:18:12;;;;;;;23.87;8.30;;;;;;;16.25;84.80;101946.50;4978880;28;20304;-75
2021/08/14 04:20:38;;;;;;;16.70;7.27;;;;;;;16.15;85.20;101949.63;4976777;28;20576;-74
2021/08/14 04:23:04;;;;;;;15.73;6.30;;;;;;;16.20;85.40;101944.44;4978494;28;20273;-74
2021/08/14 04:25:30;;;;;;;17.93;5.80;;;;;;;16.16;85.49;101942.34;4977302;28;20464;-75
2021/08/14 04:27:56;;;;;;;18.83;6.60;;;;;;;16.15;85.56;101938.81;4980357;28;20845;-75
2021/08/14 04:30:21;;;;;;;17.30;7.13;;;;;;;15.76;85.26;101875.53;4980834;28;20179;-75
2021/08/14 04:32:47;;;;;;;19.10;6.30;;;;;;;16.18;85.61;101945.69;4979615;28;20453;-74
2021/08/14 04:35:14;;;;;;;16.83;7.13;;;;;;;16.22;85.20;101941.50;4984567;28;20760;-75
2021/08/14 04:37:41;;;;;;;15.50;6.60;;;;;;;16.01;86.22;101948.78;4981771;28;20476;-75
2021/08/14 04:40:09;;;;;;;15.30;6.43;;;;;;;15.99;86.37;101952.75;4977618;28;20447;-75
2021/08/14 04:42:36;;;;;;;16.50;6.47;;;;;;;15.94;86.66;101945.28;4978224;28;20981;-76
2021/08/14 04:45:02;;;;;;;15.93;6.30;;;;;;;15.92;86.61;101939.22;4976498;28;20467;-75
2021/08/14 04:47:27;;;;;;;26.10;7.10;;;;;;;15.94;86.88;101949.81;4980622;28;20840;-75
2021/08/14 04:49:52;;;;;;;19.50;5.53;;;;;;;15.71;86.63;101896.16;4980370;28;20445;-74
2021/08/14 04:52:18;;;;;;;20.90;6.60;;;;;;;15.55;86.27;101875.69;4978299;28;20257;-75
2021/08/14 04:54:43;;;;;;;13.60;6.40;;;;;;;15.73;85.55;101875.94;4980251;28;20200;-74
2021/08/14 04:57:09;;;;;;;11.80;5.50;;;;;;;15.65;86.57;101902.31;4978826;28;20617;-75
2021/08/14 04:59:34;;;;;;;21.83;7.30;;;;;;;15.86;86.64;101941.94;4981472;28;20281;-74
2021/08/14 05:02:02;;;;;;;14.47;5.23;;;;;;;15.62;86.24;101881.94;4980579;28;20265;-74
2021/08/14 05:04:27;;;;;;;16.00;5.80;;;;;;;15.64;86.49;101898.78;4984870;28;20190;-74
2021/08/14 05:06:53;;;;;;;16.63;6.17;;;;;;;16.02;86.90;101949.63;4983621;28;21008;-75
2021/08/14 05:09:18;;;;;;;15.17;5.20;;;;;;;15.96;86.52;101942.34;4983640;28;20191;-75
2021/08/14 05:11:44;;;;;;;19.03;6.30;;;;;;;15.98;86.15;101934.84;4979696;28;20197;-75
2021/08/14 05:14:09;;;;;;;15.67;5.90;;;;;;;15.82;86.41;101903.63;4978740;28;20799;-75
2021/08/14 05:16:36;;;;;;;21.90;6.80;;;;;;;16.08;86.75;101947.97;4976396;28;20210;-74
2021/08/14 05:19:02;;;;;;;18.13;5.63;;;;;;;15.64;86.15;101858.22;4982032;28;20349;-75
2021/08/14 05:21:28;;;;;;;21.23;6.20;;;;;;;15.81;86.33;101891.97;4979284;28;20449;-75
2021/08/14 05:23:53;;;;;;;24.00;7.43;;;;;;;16.09;86.94;101950.47;4982545;28;20442;-75
2021/08/14 05:26:18;;;;;;;19.87;6.60;;;;;;;16.11;86.30;101925.88;4975886;28;20746;-75
2021/08/14 05:28:44;;;;;;;13.90;6.50;;;;;;;16.22;86.05;101938.78;4975331;28;20201;-74
2021/08/14 05:31:09;;;;;;;22.20;7.73;;;;;;;16.21;86.05;101942.56;4976048;28;20197;-75
2021/08/14 05:33:34;;;;;;;14.27;6.40;;;;;;;16.26;85.64;101926.53;4988762;28;20181;-74
2021/08/14 05:36:00;;;;;;;22.00;7.70;;;;;;;16.32;86.34;101938.38;4972475;28;20284;-74
2021/08/14 05:38:25;;;;;;;24.40;6.40;;;;;;;16.22;85.95;101922.56;4979765;28;20201;-75
2021/08/14 05:40:53;;;;;;;15.40;6.77;;;;;;;16.18;85.75;101910.50;4977600;28;20666;-74
2021/08/14 05:43:18;;;;;;;18.43;7.27;;;;;;;16.40;85.51;101943.56;4983529;28;20189;-75
2021/08/14 05:45:44;;;;;;;14.17;5.83;;;;;;;16.36;85.99;101948.56;4975811;28;21044;-75
2021/08/14 05:48:10;;;;;;;21.00;7.17;;;;;;;16.40;86.13;101940.84;4979557;28;20202;-74
2021/08/14 05:50:35;;;;;;;15.60;6.40;;;;;;;16.44;85.24;101934.81;4978578;28;20198;-74
2021/08/14 05:53:01;;;;;;;19.47;7.13;;;;;;;16.37;85.15;101938.56;4974730;28;20248;-74
2021/08/14 05:55:26;;;;;;;16.23;6.07;;;;;;;15.86;85.65;101860.78;4981626;28;20268;-74
2021/08/14 05:57:54;;;;;;;14.03;6.93;;;;;;;16.30;85.46;101945.88;4971604;28;20687;-75
2021/08/14 06:00:20;;;;;;;14.00;5.60;;;;;;;16.11;85.67;101899.66;4977244;28;20185;-75
2021/08/14 06:02:45;;;;;;;13.50;7.30;;;;;;;16.53;85.26;101945.44;4975532;28;20476;-74
2021/08/14 06:05:11;;;;;;;21.20;8.47;;;;;;;16.23;85.70;101938.59;4977136;28;20449;-75
2021/08/14 06:07:36;;;;;;;17.40;7.40;;;;;;;16.41;85.49;101931.69;4977621;28;20261;-74
2021/08/14 06:10:05;;;;;;;24.77;9.47;;;;;;;16.28;85.60;101952.31;4977682;28;20188;-75
2021/08/14 06:12:31;;;;;;;16.70;8.00;;;;;;;16.38;85.58;101962.75;4977008;28;20305;-74
2021/08/14 06:14:56;;;;;;;14.10;6.93;;;;;;;16.34;85.67;101926.28;4970967;28;20476;-75
2021/08/14 06:17:21;;;;;;;23.10;8.00;;;;;;;16.11;85.50;101905.06;4975050;28;20204;-75
2021/08/14 06:19:47;;;;;;;22.10;8.63;;;;;;;16.60;85.03;101947.06;4975967;28;20229;-75
2021/08/14 06:22:12;;;;;;;22.97;9.87;;;;;;;16.53;85.31;101942.72;4978753;28;20701;-75
2021/08/14 06:24:37;;;;;;;25.17;9.93;;;;;;;16.48;85.31;101946.88;4976767;28;20629;-74
2021/08/14 06:27:03;;;;;;;20.43;9.77;;;;;;;16.74;84.59;101945.16;4974570;28;20223;-74
2021/08/14 06:29:28;;;;;;;19.13;9.57;;;;;;;16.69;84.66;101947.66;4977205;28;20197;-75
2021/08/14 06:31:53;;;;;;;22.40;9.57;;;;;;;16.81;84.18;101932.47;4978575;28;20414;-75
2021/08/14 06:34:19;;;;;;;22.60;9.67;;;;;;;16.90;84.09;101928.47;4977110;28;20193;-74
2021/08/14 06:36:45;;;;;;;24.70;9.20;;;;;;;16.83;84.01;101897.84;4973494;28;20227;-74
2021/08/14 06:39:10;;;;;;;19.43;8.47;;;;;;;17.23;82.78;101932.91;4977059;28;20827;-75
2021/08/14 06:41:35;;;;;;;28.63;11.00;;;;;;;16.89;82.74;101877.19;4980609;28;20325;-74
2021/08/14 06:44:01;;;;;;;24.47;10.03;;;;;;;17.02;82.85;101915.06;4976293;28;20271;-74
2021/08/14 06:46:26;;;;;;;18.57;9.30;;;;;;;17.20;82.96;101943.34;4975061;28;20222;-74
2021/08/14 06:48:52;;;;;;;20.90;10.50;;;;;;;17.21;83.59;101931.44;4975910;28;20328;-74
2021/08/14 06:51:17;;;;;;;19.60;8.90;;;;;;;17.32;82.98;101928.06;4977760;28;20325;-74
2021/08/14 06:53:43;;;;;;;23.00;10.43;;;;;;;17.20;83.87;101927.09;4974895;28;20293;-75
2021/08/14 06:56:09;;;;;;;26.37;12.53;;;;;;;16.71;83.41;101848.06;4973329;28;20186;-75
2021/08/14 06:58:34;;;;;;;21.53;11.17;;;;;;;17.30;83.65;101933.72;4970035;28;20190;-76
2021/08/14 07:00:59;;;;;;;17.77;10.27;;;;;;;17.03;83.31;101897.75;4976894;28;20484;-76
2021/08/14 07:03:25;;;;;;;22.47;9.93;;;;;;;17.21;83.75;101934.16;4971536;28;20714;-75
2021/08/14 07:05:50;;;;;;;20.63;9.00;;;;;;;17.42;83.56;101942.00;4970121;28;20665;-75
2021/08/14 07:08:15;;;;;;;21.50;9.80;;;;;;;17.56;83.15;101942.72;4982974;28;20213;-76
2021/08/14 07:10:41;;;;;;;21.60;10.40;;;;;;;17.67;82.68;101941.19;4979697;28;20209;-74
2021/08/14 07:13:06;;;;;;;26.07;9.40;;;;;;;17.70;82.43;101943.47;4972495;28;20193;-75
2021/08/14 07:15:31;;;;;;;20.50;9.37;;;;;;;17.67;82.81;101944.75;4975715;28;20185;-75
2021/08/14 07:17:57;;;;;;;15.30;7.90;;;;;;;17.80;82.37;101949.28;4970649;28;20228;-76
2021/08/14 07:20:23;;;;;;;22.17;8.30;;;;;;;17.40;82.16;101903.41;4972061;28;20194;-76
2021/08/14 07:22:48;;;;;;;20.90;7.10;;;;;;;17.59;81.88;101902.44;4978076;28;24684;-75
2021/08/14 07:25:14;;;;;;;21.63;8.33;;;;;;;17.93;81.68;101923.91;4978831;28;20587;-76
2021/08/14 07:27:40;;;;;;;20.93;7.67;;;;;;;17.98;81.68;101921.38;4976288;28;20597;-76
2021/08/14 07:30:06;;;;;;;21.03;7.43;;;;;;;17.95;81.34;101900.09;4976840;28;20277;-74
2021/08/14 07:32:32;;;;;;;20.43;8.07;;;;;;;18.09;80.85;101925.25;4972034;28;20198;-75
2021/08/14 07:34:57;;;;;;;18.53;6.50;;;;;;;18.44;80.18;101933.69;4979742;28;20445;-75
2021/08/14 07:37:22;;;;;;;24.93;7.47;;;;;;;18.46;79.41;101923.44;4976124;28;20294;-76
2021/08/14 07:39:48;;;;;;;19.87;6.37;;;;;;;18.57;79.39;101921.84;4977416;28;20205;-75
2021/08/14 07:42:13;;;;;;;15.30;7.00;;;;;;;18.57;79.36;101941.69;4970893;28;20651;-75
2021/08/14 07:44:38;;;;;;;21.23;7.17;;;;;;;18.48;80.07;101935.72;4978896;28;20213;-74
2021/08/14 07:47:04;;;;;;;18.93;6.30;;;;;;;18.30;79.74;101871.34;4977424;28;20230;-75
2021/08/14 07:49:29;;;;;;;20.30;7.17;;;;;;;18.65;79.17;101933.25;4979525;28;20198;-76
2021/08/14 07:51:55;;;;;;;15.33;5.20;;;;;;;18.86;78.84;101937.44;4980273;28;20198;-75
2021/08/14 07:54:20;;;;;;;25.97;6.60;;;;;;;18.60;79.23;101926.81;4977939;28;20565;-75
2021/08/14 07:56:45;;;;;;;18.70;6.20;;;;;;;18.66;79.17;101924.06;4979206;28;20252;-76
2021/08/14 07:59:11;;;;;;;14.03;6.17;;;;;;;18.76;78.60;101937.13;4979152;28;20189;-75
2021/08/14 08:01:36;;;;;;;16.60;6.80;;;;;;;18.40;78.77;101899.88;4980278;28;20205;-75
2021/08/14 08:04:02;;;;;;;20.83;6.33;;;;;;;18.58;78.25;101905.34;4975755;28;20193;-76
2021/08/14 08:06:27;;;;;;;15.27;6.90;;;;;;;18.82;78.31;101940.84;4973314;28;20217;-73
2021/08/14 08:08:53;;;;;;;14.90;5.47;;;;;;;18.90;77.99;101940.53;4974474;28;23057;-70
2021/08/14 08:11:18;;;;;;;13.77;5.70;;;;;;;18.90;77.70;101921.50;4972499;28;20192;-73
2021/08/14 08:13:43;;;;;;;19.73;5.77;;;;;;;18.85;77.88;101937.66;4974777;28;20195;-74
2021/08/14 08:16:09;;;;;;;15.23;5.40;;;;;;;18.62;77.78;101913.84;4973386;28;20178;-73
2021/08/14 08:18:34;;;;;;;22.00;6.53;;;;;;;18.74;78.32;101948.22;4975292;28;20305;-74
2021/08/14 08:21:00;;;;;;;17.40;5.97;;;;;;;18.86;77.91;101934.72;4970942;28;20574;-73
2021/08/14 08:23:26;;;;;;;16.03;5.23;;;;;;;18.74;77.95;101939.25;4982620;28;20203;-74
2021/08/14 08:25:51;;;;;;;18.03;5.47;;;;;;;18.56;76.93;101880.25;4975392;28;20481;-74
2021/08/14 08:28:21;;;;;;;16.10;6.37;;;;;;;18.89;77.26;101939.72;4977201;28;20213;-74
2021/08/14 08:30:46;;;;;;;17.90;6.10;;;;;;;18.88;77.02;101929.88;4971943;28;20272;-73
2021/08/14 08:33:12;;;;;;;15.27;5.90;;;;;;;18.83;77.09;101904.44;4972735;28;20937;-74
2021/08/14 08:35:37;;;;;;;20.80;6.10;;;;;;;18.87;77.07;101930.94;4975340;28;20239;-74
2021/08/14 08:38:03;;;;;;;15.97;5.53;;;;;;;18.87;77.04;101913.81;4973808;28;20594;-75
2021/08/14 08:40:32;;;;;;;16.70;5.20;;;;;;;18.84;76.20;101877.03;4975707;28;20598;-74
2021/08/14 08:42:57;;;;;;;14.90;5.50;;;;;;;19.07;76.52;101932.59;4975815;28;20190;-74
2021/08/14 08:45:23;;;;;;;13.43;5.73;;;;;;;19.19;76.01;101928.03;4980706;28;20942;-74
2021/08/14 08:47:50;;;;;;;14.60;5.33;;;;;;;19.28;74.98;101914.94;4973062;28;20309;-73
2021/08/14 08:50:15;;;;;;;11.80;5.00;;;;;;;19.53;74.83;101942.00;4973026;28;20665;-74
2021/08/14 08:52:43;;;;;;;21.90;7.10;;;;;;;19.11;74.46;101888.38;4971147;28;21378;-74
2021/08/14 08:55:11;;;;;;;13.30;6.10;;;;;;;19.34;73.57;101922.19;4976835;28;20185;-74
2021/08/14 08:57:36;;;;;;;16.40;5.03;;;;;;;19.08;73.89;101886.13;4970405;28;20477;-74
2021/08/14 09:00:04;;;;;;;15.73;5.83;;;;;;;19.12;74.26;101946.31;4975944;28;20480;-75
2021/08/14 09:02:31;;;;;;;18.27;5.23;;;;;;;19.33;74.25;101931.41;4981647;28;20187;-74
2021/08/14 09:05:15;;;;;;;16.80;5.90;;;;;;;19.46;74.18;101923.03;4977917;28;20528;-74
2021/08/14 09:07:42;;;;;;;12.60;4.57;;;;;;;19.45;73.75;101926.84;4969338;28;20898;-74
2021/08/14 09:10:15;;;;;;;12.20;4.20;;;;;;;19.39;73.91;101914.16;4970756;28;20552;-74
2021/08/14 09:12:43;;;;;;;15.13;4.90;;;;;;;19.38;73.33;101921.50;4980432;28;20450;-73
2021/08/14 09:15:19;;;;;;;12.17;3.93;;;;;;;19.33;73.26;101896.06;4972870;28;21003;-74
2021/08/14 09:17:46;;;;;;;13.37;4.77;;;;;;;19.39;72.87;101914.16;4973869;28;20491;-73
2021/08/14 09:20:15;;;;;;;9.03;4.53;;;;;;;19.39;72.33;101904.09;4978427;28;20457;-74
2021/08/14 09:23:04;;;;;;;14.83;5.20;;;;;;;19.36;72.37;101909.19;4979245;28;20452;-72
2021/08/14 09:25:56;;;;;;;14.90;5.07;;;;;;;19.07;72.21;101843.69;4981728;28;21008;-73
2021/08/14 09:28:37;;;;;;;13.07;4.27;;;;;;;19.45;71.91;101890.66;4973226;28;20437;-74
2021/08/14 09:31:04;;;;;;;14.57;4.77;;;;;;;19.70;71.01;101898.63;4972885;28;20835;-74
2021/08/14 09:33:32;;;;;;;14.77;4.90;;;;;;;19.58;70.73;101899.41;4971869;28;20452;-75
2021/08/14 09:36:00;;;;;;;10.63;4.23;;;;;;;19.85;70.74;101905.31;4981905;28;20457;-75
2021/08/14 09:38:45;;;;;;;14.07;4.70;;;;;;;19.39;69.94;101827.09;4972617;28;20465;-73
2021/08/14 09:41:16;;;;;;;11.37;4.80;;;;;;;20.28;69.04;101906.03;4986546;28;20540;-76
2021/08/14 09:43:43;;;;;;;12.73;4.90;;;;;;;19.87;68.38;101853.31;4982480;28;21205;-78
2021/08/14 09:46:09;;;;;;;13.07;4.00;;;;;;;19.94;68.10;101854.06;4981671;28;20571;-78
2021/08/14 09:48:35;;;;;;;11.93;4.57;;;;;;;20.53;67.31;101897.63;4981320;28;20527;-82
2021/08/14 09:51:00;;;;;;;10.37;4.13;;;;;;;20.13;67.00;101851.19;4986121;28;20501;-81
2021/08/14 09:53:29;;;;;;;9.13;4.10;;;;;;;20.44;67.53;101899.03;4985993;28;20200;-75
2021/08/14 09:56:03;;;;;;;8.97;4.67;;;;;;;20.73;67.30;101897.22;4976148;28;20901;-76
2021/08/14 09:58:29;;;;;;;10.50;4.03;;;;;;;20.22;67.43;101803.44;4974381;28;20540;-76
2021/08/14 10:00:56;;;;;;;9.37;4.37;;;;;;;20.75;66.62;101887.72;4975317;28;20532;-76
2021/08/14 10:03:22;;;;;;;14.00;5.30;;;;;;;20.32;65.70;101815.41;4975862;28;20578;-76
2021/08/14 10:05:48;;;;;;;9.87;4.33;;;;;;;20.49;65.93;101820.94;4972358;28;20469;-74
2021/08/14 10:08:14;;;;;;;11.60;4.23;;;;;;;20.66;66.76;101896.53;4977394;28;20467;-75
2021/08/14 10:10:40;;;;;;;12.30;4.03;;;;;;;20.12;67.24;101804.06;4981045;28;20277;-78
2021/08/14 10:13:05;;;;;;;11.70;4.23;;;;;;;20.46;66.94;101883.28;4973201;28;20197;-75
2021/08/14 10:15:31;;;;;;;10.03;4.77;;;;;;;20.07;67.30;101867.41;4982136;28;20456;-77
2021/08/14 10:17:57;;;;;;;13.77;4.60;;;;;;;20.15;67.33;101889.94;4981549;28;20217;-78
2021/08/14 10:20:23;;;;;;;9.00;4.20;;;;;;;20.18;67.22;101886.72;4991704;28;20191;-85
2021/08/14 10:22:57;;;;;;;15.30;4.90;;;;;;;19.87;68.03;101858.78;4986976;28;20248;-84
2021/08/14 10:25:23;;;;;;;11.60;4.03;;;;;;;19.90;68.13;101863.75;4988159;28;20445;-81
2021/08/14 10:28:00;;;;;;;7.20;4.00;;;;;;;19.94;68.85;101864.13;4985550;28;20449;-85
2021/08/14 10:30:49;;;;;;;10.23;5.17;;;;;;;20.04;68.32;101883.41;4989598;28;20433;-83
2021/08/14 10:33:30;;;;;;;9.97;5.10;;;;;;;20.14;68.50;101888.28;4983930;28;20846;-82
2021/08/14 10:35:58;;;;;;;11.13;5.00;;;;;;;20.47;67.74;101882.19;4984122;28;20433;-84
2021/08/14 10:38:42;;;;;;;9.10;4.13;;;;;;;20.58;67.81;101884.09;4991121;28;20456;-83
2021/08/14 10:41:08;;;;;;;10.07;4.47;;;;;;;20.61;67.18;101864.53;4988415;28;20441;-84
2021/08/14 10:43:53;;;;;;;14.33;4.87;;;;;;;20.50;67.23;101881.72;4989100;28;20449;-85
2021/08/14 10:46:38;;;;;;;9.30;3.83;;;;;;;20.53;66.88;101879.38;4985699;28;20854;-84
2021/08/14 10:49:06;;;;;;;9.60;3.87;;;;;;;20.18;67.81;101851.31;4984811;28;20440;-84
2021/08/14 10:51:47;;;;;;;10.23;3.90;;;;;;;20.52;66.83;101876.88;4988162;28;20447;-84
2021/08/14 10:54:35;;;;;;;7.90;3.37;;;;;;;20.30;67.45;101860.28;4980035;28;21063;-85
2021/08/14 10:57:01;;;;;;;10.60;4.60;;;;;;;20.69;67.18;101874.25;4997218;28;20470;-86
2021/08/14 10:59:49;;;;;;;10.70;4.80;;;;;;;20.53;66.26;101849.38;4983807;28;20930;-82
2021/08/14 11:02:14;;;;;;;12.23;4.97;;;;;;;20.71;66.74;101872.09;4979788;28;20456;-84
2021/08/14 11:04:53;;;;;;;15.40;4.43;;;;;;;20.78;66.46;101861.88;4980727;28;20429;-85
2021/08/14 11:07:21;;;;;;;11.93;4.40;;;;;;;20.98;65.87;101870.47;4978756;28;20287;-83
2021/08/14 11:09:53;;;;;;;9.17;4.53;;;;;;;21.27;65.22;101865.00;4979634;28;20452;-85
2021/08/14 11:12:41;;;;;;;15.57;6.10;;;;;;;20.43;65.56;101794.66;4976901;28;20425;-82
2021/08/14 11:15:22;;;;;;;11.00;4.60;;;;;;;20.83;65.07;101836.59;4985101;28;20434;-85